sensor_id;sensor_type;location;lat;lon;timestamp;pressure;altitude;pressure_sealevel;temperature;humidity
22753;BME280;11543;43.144;24.684;2023-02-22T00:00:35;98699.25;;;13.16;42.47
22753;BME280;11543;43.144;24.684;2023-02-22T00:05:36;98681.41;;;13.15;42.35
22753;BME280;11543;43.144;24.684;2023-02-22T00:08:04;98684.78;;;13.17;42.35
22753;BME280;11543;43.144;24.684;2023-02-22T00:10:34;98671.50;;;12.99;42.42
22753;BME280;11543;43.144;24.684;2023-02-22T00:13:03;98707.31;;;13.16;42.13
22753;BME280;11543;43.144;24.684;2023-02-22T00:15:30;98697.25;;;13.18;42.38
22753;BME280;11543;43.144;24.684;2023-02-22T00:17:55;98663.59;;;12.98;41.97
22753;BME280;11543;43.144;24.684;2023-02-22T00:20:22;98702.75;;;13.25;41.90
22753;BME280;11543;43.144;24.684;2023-02-22T00:22:48;98696.53;;;13.24;42.03
22753;BME280;11543;43.144;24.684;2023-02-22T00:25:17;98699.59;;;13.21;41.94
22753;BME280;11543;43.144;24.684;2023-02-22T00:27:43;98706.97;;;13.27;41.83
22753;BME280;11543;43.144;24.684;2023-02-22T00:30:16;98704.56;;;13.32;42.05
22753;BME280;11543;43.144;24.684;2023-02-22T00:32:44;98707.09;;;13.34;41.86
22753;BME280;11543;43.144;24.684;2023-02-22T00:35:10;98698.22;;;13.25;41.70
22753;BME280;11543;43.144;24.684;2023-02-22T00:37:37;98710.66;;;13.26;41.79
22753;BME280;11543;43.144;24.684;2023-02-22T00:40:10;98704.31;;;13.19;41.70
22753;BME280;11543;43.144;24.684;2023-02-22T00:42:35;98694.53;;;13.18;41.72
22753;BME280;11543;43.144;24.684;2023-02-22T00:45:01;98704.63;;;13.16;41.69
22753;BME280;11543;43.144;24.684;2023-02-22T00:47:27;98706.00;;;13.20;41.72
22753;BME280;11543;43.144;24.684;2023-02-22T00:49:54;98695.88;;;13.14;41.84
22753;BME280;11543;43.144;24.684;2023-02-22T00:52:20;98706.66;;;13.14;41.80
22753;BME280;11543;43.144;24.684;2023-02-22T00:54:45;98660.72;;;12.99;41.57
22753;BME280;11543;43.144;24.684;2023-02-22T00:57:11;98673.00;;;13.10;41.67
22753;BME280;11543;43.144;24.684;2023-02-22T00:59:37;98676.00;;;13.15;41.93
22753;BME280;11543;43.144;24.684;2023-02-22T01:02:02;98697.88;;;13.28;41.85
22753;BME280;11543;43.144;24.684;2023-02-22T01:04:28;98692.16;;;13.15;41.87
22753;BME280;11543;43.144;24.684;2023-02-22T01:06:53;98664.91;;;13.10;41.61
22753;BME280;11543;43.144;24.684;2023-02-22T01:09:20;98688.16;;;13.19;41.70
22753;BME280;11543;43.144;24.684;2023-02-22T01:11:46;98687.31;;;13.19;41.83
22753;BME280;11543;43.144;24.684;2023-02-22T01:14:12;98685.44;;;13.11;41.72
22753;BME280;11543;43.144;24.684;2023-02-22T01:16:37;98670.31;;;13.18;41.38
22753;BME280;11543;43.144;24.684;2023-02-22T01:19:02;98667.63;;;13.10;41.42
22753;BME280;11543;43.144;24.684;2023-02-22T01:21:28;98681.41;;;13.15;41.64
22753;BME280;11543;43.144;24.684;2023-02-22T01:23:53;98679.53;;;13.16;41.61
22753;BME280;11543;43.144;24.684;2023-02-22T01:26:19;98676.72;;;13.17;41.58
22753;BME280;11543;43.144;24.684;2023-02-22T01:28:45;98704.09;;;13.29;41.66
22753;BME280;11543;43.144;24.684;2023-02-22T01:31:10;98689.81;;;13.20;41.50
22753;BME280;11543;43.144;24.684;2023-02-22T01:33:36;98663.94;;;12.95;41.83
22753;BME280;11543;43.144;24.684;2023-02-22T01:36:03;98663.28;;;12.93;41.88
22753;BME280;11543;43.144;24.684;2023-02-22T01:38:29;98669.66;;;13.00;41.90
22753;BME280;11543;43.144;24.684;2023-02-22T01:40:54;98675.91;;;13.00;42.04
22753;BME280;11543;43.144;24.684;2023-02-22T01:43:29;98675.72;;;13.02;42.01
22753;BME280;11543;43.144;24.684;2023-02-22T01:51:46;98682.25;;;13.16;41.81
22753;BME280;11543;43.144;24.684;2023-02-22T01:54:20;98663.94;;;13.03;41.85
22753;BME280;11543;43.144;24.684;2023-02-22T01:56:53;98665.28;;;13.07;41.80
22753;BME280;11543;43.144;24.684;2023-02-22T01:59:20;98671.69;;;13.06;41.73
22753;BME280;11543;43.144;24.684;2023-02-22T02:01:46;98676.72;;;13.09;42.14
22753;BME280;11543;43.144;24.684;2023-02-22T02:04:19;98664.59;;;13.05;42.11
22753;BME280;11543;43.144;24.684;2023-02-22T02:06:51;98672.66;;;13.13;41.86
22753;BME280;11543;43.144;24.684;2023-02-22T02:09:35;98686.13;;;13.21;42.14
22753;BME280;11543;43.144;24.684;2023-02-22T02:12:01;98651.47;;;13.10;42.19
22753;BME280;11543;43.144;24.684;2023-02-22T02:14:29;98689.28;;;13.25;42.26
22753;BME280;11543;43.144;24.684;2023-02-22T02:16:58;98685.41;;;13.27;42.33
22753;BME280;11543;43.144;24.684;2023-02-22T02:22:33;98683.69;;;13.34;42.47
22753;BME280;11543;43.144;24.684;2023-02-22T02:33:21;98685.91;;;13.31;42.69
22753;BME280;11543;43.144;24.684;2023-02-22T02:38:23;98687.09;;;13.28;42.81
22753;BME280;11543;43.144;24.684;2023-02-22T02:40:58;98686.47;;;13.18;43.15
22753;BME280;11543;43.144;24.684;2023-02-22T02:46:22;98683.06;;;13.16;43.19
22753;BME280;11543;43.144;24.684;2023-02-22T02:49:04;98670.97;;;13.12;43.12
22753;BME280;11543;43.144;24.684;2023-02-22T02:51:35;98672.03;;;13.03;43.13
22753;BME280;11543;43.144;24.684;2023-02-22T02:54:03;98668.31;;;13.04;43.54
22753;BME280;11543;43.144;24.684;2023-02-22T02:56:29;98660.41;;;13.02;43.42
22753;BME280;11543;43.144;24.684;2023-02-22T02:58:55;98674.06;;;13.01;43.39
22753;BME280;11543;43.144;24.684;2023-02-22T03:12:12;98687.13;;;13.20;43.47
22753;BME280;11543;43.144;24.684;2023-02-22T03:14:51;98673.66;;;13.12;43.71
22753;BME280;11543;43.144;24.684;2023-02-22T03:17:30;98688.16;;;13.19;43.64
22753;BME280;11543;43.144;24.684;2023-02-22T03:20:14;98677.56;;;13.10;43.61
22753;BME280;11543;43.144;24.684;2023-02-22T03:22:54;98684.44;;;13.20;43.81
22753;BME280;11543;43.144;24.684;2023-02-22T03:25:33;98690.78;;;13.27;43.36
22753;BME280;11543;43.144;24.684;2023-02-22T03:28:04;98672.59;;;13.29;43.40
22753;BME280;11543;43.144;24.684;2023-02-22T03:30:42;98669.59;;;13.16;43.43
22753;BME280;11543;43.144;24.684;2023-02-22T03:33:13;98669.66;;;13.08;43.72
22753;BME280;11543;43.144;24.684;2023-02-22T03:35:47;98682.41;;;13.22;43.75
22753;BME280;11543;43.144;24.684;2023-02-22T03:38:15;98691.16;;;13.24;43.71
22753;BME280;11543;43.144;24.684;2023-02-22T03:40:46;98679.72;;;13.14;43.52
22753;BME280;11543;43.144;24.684;2023-02-22T03:43:16;98700.88;;;13.33;43.43
22753;BME280;11543;43.144;24.684;2023-02-22T03:45:44;98681.75;;;13.12;43.57
22753;BME280;11543;43.144;24.684;2023-02-22T03:48:53;98703.94;;;13.22;43.71
22753;BME280;11543;43.144;24.684;2023-02-22T03:51:22;98703.59;;;13.25;43.55
22753;BME280;11543;43.144;24.684;2023-02-22T03:53:48;98694.88;;;13.15;43.64
22753;BME280;11543;43.144;24.684;2023-02-22T03:56:19;98690.84;;;13.19;43.77
22753;BME280;11543;43.144;24.684;2023-02-22T03:58:48;98682.25;;;13.16;43.46
22753;BME280;11543;43.144;24.684;2023-02-22T04:01:15;98706.00;;;13.20;43.83
22753;BME280;11543;43.144;24.684;2023-02-22T04:03:41;98683.72;;;13.26;43.63
22753;BME280;11543;43.144;24.684;2023-02-22T04:06:07;98677.69;;;13.16;43.74
22753;BME280;11543;43.144;24.684;2023-02-22T04:08:33;98685.94;;;13.15;43.64
22753;BME280;11543;43.144;24.684;2023-02-22T04:10:59;98686.94;;;13.22;43.79
22753;BME280;11543;43.144;24.684;2023-02-22T04:13:26;98683.06;;;13.16;43.79
22753;BME280;11543;43.144;24.684;2023-02-22T04:15:51;98693.53;;;13.19;43.74
22753;BME280;11543;43.144;24.684;2023-02-22T04:18:17;98684.81;;;13.01;43.83
22753;BME280;11543;43.144;24.684;2023-02-22T04:20:42;98688.19;;;13.03;43.69
22753;BME280;11543;43.144;24.684;2023-02-22T04:23:09;98704.38;;;12.87;44.98
22753;BME280;11543;43.144;24.684;2023-02-22T04:25:35;98680.44;;;12.92;44.38
22753;BME280;11543;43.144;24.684;2023-02-22T04:28:00;98678.84;;;12.74;44.37
22753;BME280;11543;43.144;24.684;2023-02-22T04:30:25;98684.84;;;12.85;44.33
22753;BME280;11543;43.144;24.684;2023-02-22T04:32:54;98681.88;;;12.63;44.55
22753;BME280;11543;43.144;24.684;2023-02-22T04:35:20;98675.84;;;12.53;44.76
22753;BME280;11543;43.144;24.684;2023-02-22T04:37:45;98657.06;;;12.29;44.97
22753;BME280;11543;43.144;24.684;2023-02-22T04:40:11;98715.22;;;12.54;45.50
22753;BME280;11543;43.144;24.684;2023-02-22T04:42:37;98666.50;;;12.25;45.64
22753;BME280;11543;43.144;24.684;2023-02-22T04:45:04;98707.81;;;12.48;45.64
22753;BME280;11543;43.144;24.684;2023-02-22T04:47:30;98660.28;;;12.24;45.96
22753;BME280;11543;43.144;24.684;2023-02-22T04:49:55;98691.34;;;12.43;46.01
22753;BME280;11543;43.144;24.684;2023-02-22T04:52:21;98695.53;;;12.54;46.25
22753;BME280;11543;43.144;24.684;2023-02-22T04:54:46;98683.44;;;12.41;46.02
22753;BME280;11543;43.144;24.684;2023-02-22T04:57:12;98668.84;;;12.36;46.14
22753;BME280;11543;43.144;24.684;2023-02-22T04:59:37;98678.22;;;12.48;46.00
22753;BME280;11543;43.144;24.684;2023-02-22T05:02:04;98694.69;;;12.61;46.20
22753;BME280;11543;43.144;24.684;2023-02-22T05:04:30;98703.75;;;12.60;46.02
22753;BME280;11543;43.144;24.684;2023-02-22T05:06:56;98706.78;;;12.65;46.00
22753;BME280;11543;43.144;24.684;2023-02-22T05:09:21;98682.56;;;12.57;46.05
22753;BME280;11543;43.144;24.684;2023-02-22T05:11:47;98722.53;;;12.85;46.17
22753;BME280;11543;43.144;24.684;2023-02-22T05:14:12;98691.13;;;12.69;46.19
22753;BME280;11543;43.144;24.684;2023-02-22T05:16:38;98721.72;;;12.84;45.94
22753;BME280;11543;43.144;24.684;2023-02-22T05:19:03;98683.53;;;12.81;46.00
22753;BME280;11543;43.144;24.684;2023-02-22T05:21:29;98680.66;;;12.82;45.63
22753;BME280;11543;43.144;24.684;2023-02-22T05:23:54;98702.69;;;12.86;45.98
22753;BME280;11543;43.144;24.684;2023-02-22T05:26:20;98698.63;;;12.90;45.98
22753;BME280;11543;43.144;24.684;2023-02-22T05:28:45;98705.34;;;12.94;46.13
22753;BME280;11543;43.144;24.684;2023-02-22T05:31:11;98729.25;;;13.05;46.13
22753;BME280;11543;43.144;24.684;2023-02-22T05:33:36;98708.38;;;12.99;45.77
22753;BME280;11543;43.144;24.684;2023-02-22T05:36:06;98709.88;;;13.10;45.75
22753;BME280;11543;43.144;24.684;2023-02-22T05:38:35;98736.78;;;13.26;45.88
22753;BME280;11543;43.144;24.684;2023-02-22T05:41:07;98714.41;;;13.09;45.98
22753;BME280;11543;43.144;24.684;2023-02-22T05:43:33;98727.69;;;13.27;45.83
22753;BME280;11543;43.144;24.684;2023-02-22T05:46:01;98750.72;;;13.29;45.91
22753;BME280;11543;43.144;24.684;2023-02-22T05:48:26;98710.34;;;13.13;45.75
22753;BME280;11543;43.144;24.684;2023-02-22T05:50:52;98728.88;;;13.24;45.87
22753;BME280;11543;43.144;24.684;2023-02-22T05:53:17;98718.09;;;13.24;45.62
22753;BME280;11543;43.144;24.684;2023-02-22T05:55:43;98736.22;;;13.38;45.63
22753;BME280;11543;43.144;24.684;2023-02-22T05:58:08;98739.56;;;13.41;45.60
22753;BME280;11543;43.144;24.684;2023-02-22T06:00:34;98761.75;;;13.51;45.52
22753;BME280;11543;43.144;24.684;2023-02-22T06:03:04;98748.63;;;13.48;45.62
22753;BME280;11543;43.144;24.684;2023-02-22T06:05:33;98749.66;;;13.47;45.34
22753;BME280;11543;43.144;24.684;2023-02-22T06:07:58;98762.06;;;13.56;45.41
22753;BME280;11543;43.144;24.684;2023-02-22T06:10:25;98754.69;;;13.50;45.72
22753;BME280;11543;43.144;24.684;2023-02-22T06:12:51;98762.72;;;13.58;45.68
22753;BME280;11543;43.144;24.684;2023-02-22T06:15:18;98758.66;;;13.62;45.41
22753;BME280;11543;43.144;24.684;2023-02-22T06:17:44;98767.91;;;13.67;45.32
22753;BME280;11543;43.144;24.684;2023-02-22T06:20:12;98766.22;;;13.66;45.34
22753;BME280;11543;43.144;24.684;2023-02-22T06:22:39;98780.50;;;13.75;45.33
22753;BME280;11543;43.144;24.684;2023-02-22T06:25:08;98756.28;;;13.67;45.17
22753;BME280;11543;43.144;24.684;2023-02-22T06:27:34;98757.25;;;13.74;45.38
22753;BME280;11543;43.144;24.684;2023-02-22T06:30:01;98755.56;;;13.73;45.01
22753;BME280;11543;43.144;24.684;2023-02-22T06:32:27;98773.34;;;13.90;45.20
22753;BME280;11543;43.144;24.684;2023-02-22T06:34:52;98767.31;;;13.88;45.09
22753;BME280;11543;43.144;24.684;2023-02-22T06:37:18;98774.94;;;14.08;44.88
22753;BME280;11543;43.144;24.684;2023-02-22T06:39:43;98772.53;;;14.13;44.72
22753;BME280;11543;43.144;24.684;2023-02-22T06:42:09;98765.81;;;14.09;44.75
22753;BME280;11543;43.144;24.684;2023-02-22T06:44:34;98776.84;;;14.22;44.72
22753;BME280;11543;43.144;24.684;2023-02-22T06:46:59;98769.41;;;14.24;44.73
22753;BME280;11543;43.144;24.684;2023-02-22T06:49:26;98775.59;;;14.32;44.70
22753;BME280;11543;43.144;24.684;2023-02-22T06:51:51;98763.28;;;14.30;44.58
22753;BME280;11543;43.144;24.684;2023-02-22T06:54:21;98774.00;;;14.46;44.34
22753;BME280;11543;43.144;24.684;2023-02-22T06:56:46;98761.63;;;14.52;44.49
22753;BME280;11543;43.144;24.684;2023-02-22T06:59:13;98765.47;;;14.57;44.39
22753;BME280;11543;43.144;24.684;2023-02-22T07:01:40;98774.13;;;14.68;44.29
22753;BME280;11543;43.144;24.684;2023-02-22T07:04:06;98743.03;;;14.57;44.17
22753;BME280;11543;43.144;24.684;2023-02-22T07:06:31;98778.09;;;14.80;44.45
22753;BME280;11543;43.144;24.684;2023-02-22T07:08:57;98751.81;;;14.74;43.74
22753;BME280;11543;43.144;24.684;2023-02-22T07:11:22;98769.66;;;14.97;44.06
22753;BME280;11543;43.144;24.684;2023-02-22T07:13:48;98755.22;;;14.90;44.01
22753;BME280;11543;43.144;24.684;2023-02-22T07:16:15;98751.59;;;14.98;43.96
22753;BME280;11543;43.144;24.684;2023-02-22T07:18:40;98753.72;;;15.03;43.58
22753;BME280;11543;43.144;24.684;2023-02-22T07:21:06;98732.09;;;15.03;43.58
22753;BME280;11543;43.144;24.684;2023-02-22T07:23:31;98756.06;;;15.20;43.43
22753;BME280;11543;43.144;24.684;2023-02-22T07:26:01;98752.78;;;15.25;43.26
22753;BME280;11543;43.144;24.684;2023-02-22T07:28:27;98720.00;;;15.13;42.98
22753;BME280;11543;43.144;24.684;2023-02-22T07:30:52;98762.19;;;15.44;42.81
22753;BME280;11543;43.144;24.684;2023-02-22T07:33:18;98745.31;;;15.42;43.66
22753;BME280;11543;43.144;24.684;2023-02-22T07:35:45;98751.72;;;15.55;42.79
22753;BME280;11543;43.144;24.684;2023-02-22T07:38:12;98735.31;;;15.57;42.57
22753;BME280;11543;43.144;24.684;2023-02-22T07:40:39;98755.13;;;15.72;42.73
22753;BME280;11543;43.144;24.684;2023-02-22T07:43:25;98746.25;;;15.78;42.57
22753;BME280;11543;43.144;24.684;2023-02-22T07:45:53;98755.66;;;15.82;42.50
22753;BME280;11543;43.144;24.684;2023-02-22T07:48:20;98769.19;;;16.04;42.91
22753;BME280;11543;43.144;24.684;2023-02-22T07:50:46;98750.31;;;15.89;42.30
22753;BME280;11543;43.144;24.684;2023-02-22T07:53:21;98778.69;;;16.14;42.18
22753;BME280;11543;43.144;24.684;2023-02-22T07:55:47;98761.34;;;16.09;42.18
22753;BME280;11543;43.144;24.684;2023-02-22T07:58:18;98764.84;;;16.24;42.10
22753;BME280;11543;43.144;24.684;2023-02-22T08:00:44;98746.00;;;16.16;41.50
22753;BME280;11543;43.144;24.684;2023-02-22T08:03:13;98757.03;;;16.14;41.77
22753;BME280;11543;43.144;24.684;2023-02-22T08:05:43;98758.50;;;16.17;41.78
22753;BME280;11543;43.144;24.684;2023-02-22T08:08:09;98761.88;;;16.19;41.99
22753;BME280;11543;43.144;24.684;2023-02-22T08:10:35;98772.06;;;16.38;42.43
22753;BME280;11543;43.144;24.684;2023-02-22T08:13:02;98759.88;;;16.28;41.84
22753;BME280;11543;43.144;24.684;2023-02-22T08:15:36;98755.75;;;16.32;41.98
22753;BME280;11543;43.144;24.684;2023-02-22T08:18:05;98753.22;;;16.30;42.11
22753;BME280;11543;43.144;24.684;2023-02-22T08:20:33;98757.53;;;16.46;42.16
22753;BME280;11543;43.144;24.684;2023-02-22T08:22:59;98759.06;;;16.48;41.80
22753;BME280;11543;43.144;24.684;2023-02-22T08:25:27;98757.09;;;16.42;41.94
22753;BME280;11543;43.144;24.684;2023-02-22T08:28:02;98745.50;;;16.48;41.61
22753;BME280;11543;43.144;24.684;2023-02-22T08:30:30;98766.00;;;16.58;41.73
22753;BME280;11543;43.144;24.684;2023-02-22T08:32:57;98748.06;;;16.56;41.10
22753;BME280;11543;43.144;24.684;2023-02-22T08:35:24;98750.13;;;16.76;41.34
22753;BME280;11543;43.144;24.684;2023-02-22T08:37:52;98751.66;;;16.85;41.64
22753;BME280;11543;43.144;24.684;2023-02-22T08:40:21;98772.78;;;16.96;41.45
22753;BME280;11543;43.144;24.684;2023-02-22T08:42:47;98756.28;;;16.91;41.23
22753;BME280;11543;43.144;24.684;2023-02-22T08:45:12;98753.44;;;16.99;40.86
22753;BME280;11543;43.144;24.684;2023-02-22T08:47:39;98762.88;;;17.10;41.36
22753;BME280;11543;43.144;24.684;2023-02-22T08:50:06;98736.78;;;17.02;41.43
22753;BME280;11543;43.144;24.684;2023-02-22T08:52:31;98769.22;;;17.24;41.26
22753;BME280;11543;43.144;24.684;2023-02-22T08:54:57;98753.59;;;17.26;40.89
22753;BME280;11543;43.144;24.684;2023-02-22T08:57:23;98765.81;;;17.43;41.20
22753;BME280;11543;43.144;24.684;2023-02-22T08:59:48;98772.09;;;17.50;41.20
22753;BME280;11543;43.144;24.684;2023-02-22T09:02:16;98761.25;;;17.50;41.40
22753;BME280;11543;43.144;24.684;2023-02-22T09:04:42;98760.84;;;17.53;41.69
22753;BME280;11543;43.144;24.684;2023-02-22T09:07:08;98763.34;;;17.48;41.27
22753;BME280;11543;43.144;24.684;2023-02-22T09:09:36;98741.56;;;17.35;40.79
22753;BME280;11543;43.144;24.684;2023-02-22T09:12:03;98744.34;;;17.48;40.54
22753;BME280;11543;43.144;24.684;2023-02-22T09:14:28;98740.34;;;17.37;41.15
22753;BME280;11543;43.144;24.684;2023-02-22T09:16:54;98752.47;;;17.48;40.57
22753;BME280;11543;43.144;24.684;2023-02-22T09:19:19;98762.09;;;17.50;40.26
22753;BME280;11543;43.144;24.684;2023-02-22T09:21:52;98767.16;;;17.60;40.37
22753;BME280;11543;43.144;24.684;2023-02-22T09:24:17;98769.44;;;17.63;40.82
22753;BME280;11543;43.144;24.684;2023-02-22T09:26:46;98769.31;;;17.71;40.26
22753;BME280;11543;43.144;24.684;2023-02-22T09:29:12;98747.16;;;17.68;40.36
22753;BME280;11543;43.144;24.684;2023-02-22T09:31:39;98768.06;;;17.74;39.92
22753;BME280;11543;43.144;24.684;2023-02-22T09:34:06;98761.22;;;17.85;40.73
22753;BME280;11543;43.144;24.684;2023-02-22T09:36:47;98758.91;;;17.81;40.64
22753;BME280;11543;43.144;24.684;2023-02-22T09:39:17;98758.09;;;17.88;40.03
22753;BME280;11543;43.144;24.684;2023-02-22T09:46:56;98741.81;;;17.88;40.48
22753;BME280;11543;43.144;24.684;2023-02-22T09:49:28;98762.31;;;18.03;39.81
22753;BME280;11543;43.144;24.684;2023-02-22T09:52:10;98756.97;;;18.23;40.23
22753;BME280;11543;43.144;24.684;2023-02-22T09:57:42;98744.84;;;18.32;39.36
22753;BME280;11543;43.144;24.684;2023-02-22T10:05:46;98725.44;;;18.42;39.30
22753;BME280;11543;43.144;24.684;2023-02-22T10:08:15;98738.63;;;18.65;39.14
22753;BME280;11543;43.144;24.684;2023-02-22T10:10:45;98737.56;;;18.79;38.70
22753;BME280;11543;43.144;24.684;2023-02-22T10:19:19;98693.22;;;18.98;39.12
22753;BME280;11543;43.144;24.684;2023-02-22T10:26:57;98717.38;;;19.46;38.73
22753;BME280;11543;43.144;24.684;2023-02-22T10:30:01;98706.53;;;19.33;38.96
22753;BME280;11543;43.144;24.684;2023-02-22T10:32:35;98705.94;;;19.18;39.71
22753;BME280;11543;43.144;24.684;2023-02-22T10:35:17;98701.28;;;19.38;39.22
22753;BME280;11543;43.144;24.684;2023-02-22T10:37:45;98690.41;;;19.38;39.04
22753;BME280;11543;43.144;24.684;2023-02-22T10:42:37;98686.25;;;19.29;38.68
22753;BME280;11543;43.144;24.684;2023-02-22T10:45:05;98700.41;;;19.44;39.08
22753;BME280;11543;43.144;24.684;2023-02-22T10:47:31;98662.56;;;19.36;37.82
22753;BME280;11543;43.144;24.684;2023-02-22T10:50:01;98667.75;;;19.51;37.74
22753;BME280;11543;43.144;24.684;2023-02-22T10:52:31;98654.50;;;19.67;37.16
22753;BME280;11543;43.144;24.684;2023-02-22T10:54:59;98678.47;;;19.84;37.76
22753;BME280;11543;43.144;24.684;2023-02-22T10:57:31;98670.47;;;19.89;37.48
22753;BME280;11543;43.144;24.684;2023-02-22T11:00:16;98668.56;;;19.51;36.96
22753;BME280;11543;43.144;24.684;2023-02-22T11:10:45;98668.19;;;19.41;38.29
22753;BME280;11543;43.144;24.684;2023-02-22T11:15:59;98650.88;;;19.29;37.61
22753;BME280;11543;43.144;24.684;2023-02-22T11:18:32;98651.53;;;19.24;38.71
22753;BME280;11543;43.144;24.684;2023-02-22T11:21:09;98652.31;;;19.38;38.61
22753;BME280;11543;43.144;24.684;2023-02-22T11:23:37;98656.06;;;19.44;38.74
22753;BME280;11543;43.144;24.684;2023-02-22T11:26:09;98653.03;;;19.65;37.72
22753;BME280;11543;43.144;24.684;2023-02-22T11:28:41;98633.81;;;19.60;37.60
22753;BME280;11543;43.144;24.684;2023-02-22T11:31:14;98652.22;;;19.64;37.46
22753;BME280;11543;43.144;24.684;2023-02-22T11:33:53;98622.19;;;19.33;37.99
22753;BME280;11543;43.144;24.684;2023-02-22T11:36:36;98647.63;;;19.58;38.08
22753;BME280;11543;43.144;24.684;2023-02-22T11:39:19;98637.59;;;19.59;37.86
22753;BME280;11543;43.144;24.684;2023-02-22T11:41:46;98645.78;;;19.52;37.95
22753;BME280;11543;43.144;24.684;2023-02-22T11:44:28;98633.00;;;19.53;38.32
22753;BME280;11543;43.144;24.684;2023-02-22T11:46:56;98630.00;;;19.67;39.14
22753;BME280;11543;43.144;24.684;2023-02-22T11:49:34;98640.63;;;19.76;37.37
22753;BME280;11543;43.144;24.684;2023-02-22T11:52:23;98616.81;;;19.64;37.39
22753;BME280;11543;43.144;24.684;2023-02-22T11:55:34;98644.06;;;19.96;37.37
22753;BME280;11543;43.144;24.684;2023-02-22T11:58:12;98629.81;;;19.94;36.64
22753;BME280;11543;43.144;24.684;2023-02-22T12:01:14;98622.34;;;19.83;37.07
22753;BME280;11543;43.144;24.684;2023-02-22T12:03:55;98629.75;;;20.07;36.31
22753;BME280;11543;43.144;24.684;2023-02-22T12:06:43;98622.63;;;20.06;37.50
22753;BME280;11543;43.144;24.684;2023-02-22T12:12:16;98633.19;;;20.21;36.59
22753;BME280;11543;43.144;24.684;2023-02-22T12:14:59;98633.53;;;20.06;36.67
22753;BME280;11543;43.144;24.684;2023-02-22T12:20:21;98620.63;;;19.95;36.95
22753;BME280;11543;43.144;24.684;2023-02-22T12:23:15;98618.75;;;20.20;37.32
22753;BME280;11543;43.144;24.684;2023-02-22T12:26:06;98602.06;;;20.10;36.82
22753;BME280;11543;43.144;24.684;2023-02-22T12:28:46;98623.31;;;20.26;36.46
22753;BME280;11543;43.144;24.684;2023-02-22T12:31:35;98610.47;;;20.33;37.30
22753;BME280;11543;43.144;24.684;2023-02-22T12:37:02;98598.75;;;20.08;37.76
22753;BME280;11543;43.144;24.684;2023-02-22T12:39:45;98622.03;;;20.04;36.40
22753;BME280;11543;43.144;24.684;2023-02-22T12:42:28;98598.00;;;19.94;37.16
22753;BME280;11543;43.144;24.684;2023-02-22T12:45:02;98614.28;;;20.01;37.42
22753;BME280;11543;43.144;24.684;2023-02-22T12:47:41;98601.72;;;20.00;37.79
22753;BME280;11543;43.144;24.684;2023-02-22T12:50:16;98600.63;;;20.32;36.95
22753;BME280;11543;43.144;24.684;2023-02-22T12:52:51;98613.09;;;20.47;36.77
22753;BME280;11543;43.144;24.684;2023-02-22T12:55:19;98613.63;;;20.30;36.93
22753;BME280;11543;43.144;24.684;2023-02-22T13:01:13;98607.34;;;19.73;37.48
22753;BME280;11543;43.144;24.684;2023-02-22T13:03:42;98591.34;;;19.84;38.24
22753;BME280;11543;43.144;24.684;2023-02-22T13:06:13;98605.13;;;19.89;37.35
22753;BME280;11543;43.144;24.684;2023-02-22T13:14:41;98611.47;;;19.83;37.20
22753;BME280;11543;43.144;24.684;2023-02-22T13:20:13;98611.03;;;19.86;37.78
22753;BME280;11543;43.144;24.684;2023-02-22T13:22:54;98601.38;;;19.90;38.57
22753;BME280;11543;43.144;24.684;2023-02-22T13:25:47;98593.56;;;19.68;38.14
22753;BME280;11543;43.144;24.684;2023-02-22T13:28:38;98609.34;;;19.85;38.48
22753;BME280;11543;43.144;24.684;2023-02-22T13:52:50;98591.22;;;19.34;38.36
22753;BME280;11543;43.144;24.684;2023-02-22T13:55:22;98600.44;;;19.33;38.38
22753;BME280;11543;43.144;24.684;2023-02-22T13:57:59;98607.16;;;19.68;38.01
22753;BME280;11543;43.144;24.684;2023-02-22T14:00:58;98606.91;;;19.77;37.75
22753;BME280;11543;43.144;24.684;2023-02-22T14:03:36;98606.63;;;19.53;37.38
22753;BME280;11543;43.144;24.684;2023-02-22T14:06:10;98595.53;;;19.48;38.44
22753;BME280;11543;43.144;24.684;2023-02-22T14:08:54;98599.09;;;19.55;38.47
22753;BME280;11543;43.144;24.684;2023-02-22T14:16:24;98614.16;;;19.51;38.55
22753;BME280;11543;43.144;24.684;2023-02-22T14:19:02;98600.75;;;19.56;38.36
22753;BME280;11543;43.144;24.684;2023-02-22T14:21:31;98606.84;;;19.45;38.63
22753;BME280;11543;43.144;24.684;2023-02-22T14:24:13;98599.25;;;19.60;37.69
22753;BME280;11543;43.144;24.684;2023-02-22T14:26:57;98593.22;;;19.58;38.25
22753;BME280;11543;43.144;24.684;2023-02-22T14:29:23;98597.41;;;19.54;38.15
22753;BME280;11543;43.144;24.684;2023-02-22T14:34:16;98603.66;;;19.61;38.50
22753;BME280;11543;43.144;24.684;2023-02-22T14:39:30;98609.28;;;19.22;38.67
22753;BME280;11543;43.144;24.684;2023-02-22T14:44:39;98604.28;;;19.19;39.25
22753;BME280;11543;43.144;24.684;2023-02-22T14:47:08;98586.81;;;18.88;39.41
22753;BME280;11543;43.144;24.684;2023-02-22T14:49:43;98595.16;;;18.93;39.09
22753;BME280;11543;43.144;24.684;2023-02-22T14:52:32;98602.25;;;18.94;39.09
22753;BME280;11543;43.144;24.684;2023-02-22T15:27:05;98606.31;;;18.19;40.39
22753;BME280;11543;43.144;24.684;2023-02-22T15:29:35;98605.91;;;18.02;40.61
22753;BME280;11543;43.144;24.684;2023-02-22T15:32:01;98611.97;;;17.91;41.01
22753;BME280;11543;43.144;24.684;2023-02-22T15:34:29;98610.06;;;17.78;41.01
22753;BME280;11543;43.144;24.684;2023-02-22T15:36:58;98614.88;;;17.76;41.12
22753;BME280;11543;43.144;24.684;2023-02-22T15:39:32;98616.09;;;17.67;41.18
22753;BME280;11543;43.144;24.684;2023-02-22T15:42:14;98617.53;;;17.63;41.18
22753;BME280;11543;43.144;24.684;2023-02-22T15:44:48;98612.50;;;17.60;41.05
22753;BME280;11543;43.144;24.684;2023-02-22T15:47:25;98608.94;;;17.53;41.21